Create Custom Reports and Graphics: Custom Report

Latest Observations

Map

15 Minute Data

Lodi West

11 Stations

15 Minute Data | America/Los_Angeles
as of 1/26/20 5:07 AM PST
Station Date Time Temp (°F) RH (%) Dew Pt (°F) Wind Dir (°) Wind Spd (mph) Wind Gust (mph) Latest Rain (In) Daily Rain (In) Daily Min Temp (°F) Daily Max Temp (°F)
Claussen 1/26/20 0500 53.8   7.9 99   1 53.5   7.7 ESE | 107 0.2   1.2 1.3   0.8 0.00 0.00 53.7   8.7 55.3   3.0
Clarksburg (CLK) 1/26/20 0500 54.6   7.9 100   0 54.6   7.9 S | 179 3.9   1.4 6.7   2.6 0.00 0.00 54.1   7.5 55.0   2.8
Courtland-C3 1/26/20 0500 53.5   7.0 100   0 53.6   7.0 SW | 231 4.2   3.3 10.8   8.9 0.02 0.12 53.3   7.2 53.8   3.3
Guard Rd (Lodi WSW) 1/26/20 0500 54.1   7.7 100   0 54.0   7.7 ESE | 105 1.8   0.2 4.2   0.9 0.01 0.06 54.1   7.8 55.0   3.1
Gorter - Wilson 1/26/20 0500 54.3   6.5 100   0 54.4   6.5 S | 179 4.9   1.9 8.5   3.9 0.02 0.14 54.0   6.4 54.5   2.9
Hood (HOD) 1/26/20 0500 54.9   7.5 100   0 54.9   7.5 S | 188 4.0   2.0 7.6   4.8 0.03 0.16 54.3   7.0 55.2   2.7
Pacific Fruit 1/26/20 0500 55.3   7.7 99   1 55.1   7.9 SSW | 206 2.4   1.1 4.1   1.3 0.01 0.11 55.2   7.9 55.5   3.0
Ryer Island South (RIS) 1/26/20 0500 54.8   6.4 99   0 54.7   6.4 S | 188 2.3   2.0 5.0   3.4 0.02 0.13 53.9   5.8 55.0   2.7
Utter - Wilson 1/26/20 0500 54.7   5.9 100   0 54.7   5.9 SSE | 166 4.5   2.7 6.8   3.3 0.01 0.13 54.3   5.8 54.8   2.5
Clarksburg-3A2 1/26/20 0500 54.8   7.4 100   0 54.9   7.4 SSE | 160 4.8   2.6 7.6   4.8 0.02 0.18 54.5   7.2 54.9   3.0
Max     55.3 100 55.1 - 4.9 10.8 0.03 0.18 55.2 55.5
Avg     54.5 100 54.4 - 3.3 6.3 0.01 - - -
Min     53.5 99 53.5 - 0.2 1.3 0.00 0.00 53.3 53.8

Lodi Central

Latest Observations

15 Minute Data | America/Los_Angeles
as of 1/26/20 5:07 AM PST
Station Date Time Temp (°F) Dew Pt (°F) RH (%) Wind Dir (°) Wind Spd (mph) Wind Gust (mph) Latest Rain (In) Daily Rain (In) Daily Min Temp (°F) Daily Max Temp (°F)
Galt West (GAW) 1/26/20 0500 54.3   7.4 53.4   7.2 97   1 SSE | 150 4.9   2.7 8.4   5.3 0.01 0.05 53.9   7.4 55.0   3.1
Valley Oak 1/26/20 0500 53.6   7.1 53.0   7.1 98   0 SSE | 152 2.8   1.1 5.7   3.1 0.02 0.06 53.6   7.6 54.5   2.5
Thornton 1/26/20 0500 54.2   7.2 50.7   6.0 88   4 SSE | 150 3.9   2.9 7.1   3.4 0.03 0.07 54.1   7.3 55.0   2.8
Kost Rd 1/26/20 0500 54.1   7.2 54.1   7.2 100   0 SSE | 150 3.4   1.5 5.6   2.7 0.02 0.07 54.1   7.6 54.8   2.8
DeVries Road-North 1/26/20 0500 53.3   6.6 53.0   6.3 99   1 SE | 134 3.4   1.2 6.0   2.4 0.04 0.08 53.3   7.0 54.0   2.8
Lodi (LangeTwins) 1/26/20 0430 53.5   5.4 53.0   5.2 98   1 SE | 141 3.6   3.6 6.1   6.1 0.00 0.02 53.5   5.5 54.3   3.1
Acampo (ACP) 1/26/20 0500 53.8   5.0 53.8   5.0 100   0 SE | 130 2.4   1.7 5.8   3.0 0.03 0.06 53.7   5.5 54.7   2.8
Lodi West (MDW) 1/26/20 0500 53.7   6.7 53.4   6.7 99   0 ESE | 118 1.6   0.1 4.2   0.9 0.02 0.06 53.5   7.0 54.9   3.0
Max     54.3 54.1 100 - 4.9 8.4 0.04 0.08 54.1 55.0
Avg     53.8 53.1 97 - 3.2 6.1 0.02 - - -
Min     53.3 50.7 88 - 1.6 4.2 0.00 0.02 53.3 54.0

Lodi South

19 Stations

15 Minute Data
as of 1/26/20 5:07 AM PST
Station Date Time Temp (°F) Dew Pt (°F) RH (%) Wind Spd (mph) Wind Dir (°) Wind Gust (mph) Latest Rain (In) Daily Rain (In) Daily Min Temp (°F) Daily Max Temp (°F)
Borden Hills 1/26/20 0500 55.0   5.3 55.0   5.4 100   0 3.5   1.1 SE | 137 5.1   0.6 0.00 0.07 54.7   5.3 55.7   3.7
Collegeville (COL) 1/26/20 0500 53.4   3.9 53.4   3.9 100   0 2.8   1.4 ESE | 118 5.9   2.6 0.00 0.04 53.1   6.2 54.9   3.6
Galt-East (EGT) 1/26/20 0500 53.6   4.6 53.6   4.6 100   0 3.0   0.5 SE | 134 5.7   1.8 0.01 0.08 53.3   5.0 54.6   4.0
Escalon (ESL) 1/26/20 0500 53.0   4.0 52.8   3.8 99   1 2.2   2.0 ESE | 110 4.5   2.9 0.00 0.04 53.0   6.9 54.6   5.5
Victor - N (Katusha) 1/26/20 0500 53.0   4.0 53.0   4.0 100   0 3.0   2.6 SE | 124 5.1   2.0 0.01 0.04 52.7   5.0 54.6   3.3
Gilbeau Ranch 1/25/20 1900 52.2   2.7 51.2   0.6 96   7 1.0   0.0 ENE | 69 2.2   0.4 0.00 0.00 47.2   5.2 57.8   8.8
Lodi 9/1/19 2315 68.3   2.1 54.6   2.0 61   8 0.0   0.0 N | 0 0.0   0.6 0.00 0.00 54.3   2.9 96.9   0.2
Linden (LIN) 1/26/20 0500 53.5   3.9 53.4   3.8 99   1 2.4   1.3 ESE | 120 4.9   2.2 0.00 0.07 53.4   5.7 54.8   3.6
Live Oak (LIV) 1/26/20 0500 53.3   3.8 53.3   3.8 100   0 2.2   1.8 E | 101 4.3   2.6 0.01 0.04 53.3   5.9 54.8   3.3
Lockeford (LOC) 1/26/20 0500 53.8   4.6 - 0   0 2.5   1.2 SE | 143 4.6   1.7 0.00 0.06 53.3   4.7 55.4   3.8
Lone Oak-L28 1/26/20 0500 52.5   6.6 52.4   6.6 100   0 2.8   0.7 SE | 137 4.8   1.8 0.00 0.10 52.2   8.6 53.8   5.7
Colony 1 1/26/20 0500 53.2   6.4 53.1   6.4 100   0 3.6   2.4 SE | 140 6.8   4.4 0.02 0.04 51.9   6.3 53.8   3.2
Colony 2 1/26/20 0500 53.4   6.7 53.3   6.7 100   0 4.5   2.3 SE | 143 7.0   3.9 0.02 0.05 52.3   6.4 54.2   2.6
Sheldon (SHL) 1/26/20 0500 54.0   6.5 53.6   6.5 99   0 4.7   3.5 SSE | 162 7.8   4.7 0.04 0.08 53.9   6.5 54.4   2.7
Sierra Loma-L27 1/26/20 0500 53.8   4.5 53.8   4.5 100   0 3.1   0.3 SE | 145 5.8   0.7 0.00 0.06 53.5   4.6 54.4   3.3
Simmerhorn (SIM) 1/26/20 0500 53.5   4.3 53.5   4.3 100   0 - - - - - 53.3   5.6 54.1   3.9
Sloughhouse (SLH) 1/26/20 0500 54.2   3.8 36.0   3.5 50   0 0.0   0.1 N | 0 0.0   3.8 0.01 0.08 54.1   5.1 55.2   3.3
5 Wells 1/26/20 0500 53.8   4.8 53.8   4.8 100   0 4.6   3.2 SE | 139 7.3   4.9 0.00 0.03 53.7   5.4 54.4   3.7
Max     55.0 55.0 100 4.7 - 7.8 0.04 0.10 54.7 55.7
Avg     53.6 52.3 90 3.0 - 5.3 0.01 - - -
Min     52.5 36.0 0 0.0 - 0.0 0.00 0.03 51.9 53.8